Time;durP1;ratioP1;P1;durP2;ratioP2;P2;SDS_P1;SDS_P2;PMS_P1;PMS_P2;Temp;Humidity;BMP_temperature;BMP_pressure;BME280_temperature;BME280_humidity;BME280_pressure;Samples;Min_cycle;Max_cycle;Signal;HPM_P1;HPM_P2
2021/05/29 00:02:11;;;;;;;3.63;2.97;;;;;;;;;;5008972;28;20050;-71
2021/05/29 00:04:38;;;;;;;4.93;3.50;;;;;;;;;;4993657;28;20050;-71
2021/05/29 00:07:07;;;;;;;4.57;3.35;;;;;;;;;;4993545;28;20097;-71
2021/05/29 00:09:34;;;;;;;3.85;3.15;;;;;;;;;;5008158;28;20513;-71
2021/05/29 00:12:01;;;;;;;4.60;3.00;;;;;;;;;;5008616;28;20086;-71
2021/05/29 00:14:27;;;;;;;4.22;3.67;;;;;;;;;;5008577;28;20109;-71
2021/05/29 00:16:54;;;;;;;5.75;3.40;;;;;;;;;;5008361;28;20093;-71
2021/05/29 00:19:20;;;;;;;4.20;3.30;;;;;;;;;;4993423;28;20054;-71
2021/05/29 00:21:47;;;;;;;4.63;3.55;;;;;;;;;;4993693;28;20047;-71
2021/05/29 00:24:14;;;;;;;4.50;3.22;;;;;;;;;;5008521;28;20046;-70
2021/05/29 00:26:40;;;;;;;4.85;3.15;;;;;;;;;;4992986;28;20130;-70
2021/05/29 00:29:07;;;;;;;3.80;3.30;;;;;;;;;;5008623;28;20105;-70
2021/05/29 00:31:33;;;;;;;6.15;3.95;;;;;;;;;;5008225;28;20097;-70
2021/05/29 00:34:00;;;;;;;4.15;2.97;;;;;;;;;;4993193;28;20054;-71
2021/05/29 00:36:27;;;;;;;4.85;3.15;;;;;;;;;;5007849;28;20054;-71
2021/05/29 00:38:53;;;;;;;4.10;3.67;;;;;;;;;;5008380;28;20090;-71
2021/05/29 00:41:20;;;;;;;5.10;3.65;;;;;;;;;;5008241;28;20078;-71
2021/05/29 00:43:46;;;;;;;3.70;3.40;;;;;;;;;;5008114;28;20842;-71
2021/05/29 00:46:13;;;;;;;5.50;3.00;;;;;;;;;;5007893;28;20050;-71
2021/05/29 00:48:40;;;;;;;3.38;3.08;;;;;;;;;;5008039;28;20061;-71
2021/05/29 00:51:08;;;;;;;4.32;3.75;;;;;;;;;;5007929;28;20513;-71
2021/05/29 00:53:38;;;;;;;4.85;3.15;;;;;;;;;;5007835;28;20050;-71
2021/05/29 00:56:06;;;;;;;3.63;3.05;;;;;;;;;;5007733;28;20100;-71
2021/05/29 00:58:32;;;;;;;6.88;3.30;;;;;;;;;;4991612;28;20560;-71
2021/05/29 01:00:59;;;;;;;4.95;3.03;;;;;;;;;;5007999;28;20046;-71
2021/05/29 01:03:28;;;;;;;6.20;3.47;;;;;;;;;;5007891;28;20085;-70
2021/05/29 01:05:55;;;;;;;4.75;3.70;;;;;;;;;;4991599;28;20104;-71
2021/05/29 01:08:25;;;;;;;9.13;3.72;;;;;;;;;;5007719;28;20109;-71
2021/05/29 01:10:52;;;;;;;3.92;3.17;;;;;;;;;;4992642;28;20050;-71
2021/05/29 01:13:23;;;;;;;4.07;3.40;;;;;;;;;;5007681;28;20054;-71
2021/05/29 01:15:50;;;;;;;5.35;3.88;;;;;;;;;;5006884;28;20078;-71
2021/05/29 01:18:17;;;;;;;3.70;3.30;;;;;;;;;;5007679;28;20489;-71
2021/05/29 01:20:45;;;;;;;5.50;3.78;;;;;;;;;;5006574;28;20050;-70
2021/05/29 01:23:13;;;;;;;5.03;3.55;;;;;;;;;;4992568;28;20050;-70
2021/05/29 01:25:46;;;;;;;5.20;3.78;;;;;;;;;;5007236;28;20147;-70
2021/05/29 01:28:23;;;;;;;4.05;3.58;;;;;;;;;;5007402;28;20046;-70
2021/05/29 01:31:06;;;;;;;6.00;3.72;;;;;;;;;;5007189;28;20285;-70
2021/05/29 01:33:35;;;;;;;4.38;3.67;;;;;;;;;;5007258;28;20464;-70
2021/05/29 01:36:07;;;;;;;5.03;3.47;;;;;;;;;;5007225;28;20081;-71
2021/05/29 01:38:35;;;;;;;5.32;3.83;;;;;;;;;;4991062;28;20101;-70
2021/05/29 01:41:06;;;;;;;4.78;4.28;;;;;;;;;;4992354;28;20082;-71
2021/05/29 01:43:37;;;;;;;4.20;3.80;;;;;;;;;;5007225;28;20101;-70
2021/05/29 01:46:04;;;;;;;4.38;3.97;;;;;;;;;;5006909;28;20540;-70
2021/05/29 01:48:34;;;;;;;4.30;3.78;;;;;;;;;;5007233;28;20056;-70
2021/05/29 01:51:01;;;;;;;4.95;4.00;;;;;;;;;;5007016;28;20050;-70
2021/05/29 01:53:28;;;;;;;4.35;3.95;;;;;;;;;;5007178;28;20103;-71
2021/05/29 01:55:54;;;;;;;6.18;3.95;;;;;;;;;;5006797;28;20054;-70
2021/05/29 01:58:21;;;;;;;4.22;3.67;;;;;;;;;;5007237;28;20097;-70
2021/05/29 02:00:48;;;;;;;4.03;3.60;;;;;;;;;;5007071;28;20086;-71
2021/05/29 02:03:14;;;;;;;3.67;3.38;;;;;;;;;;5007157;28;20413;-71
2021/05/29 02:05:41;;;;;;;4.68;3.40;;;;;;;;;;5006891;28;20085;-70
2021/05/29 02:08:09;;;;;;;5.70;3.80;;;;;;;;;;5007142;28;20086;-71
2021/05/29 02:10:39;;;;;;;6.38;3.70;;;;;;;;;;5007156;28;20078;-71
2021/05/29 02:13:11;;;;;;;4.85;4.10;;;;;;;;;;5007058;28;20078;-71
2021/05/29 02:15:40;;;;;;;4.78;4.20;;;;;;;;;;5006785;28;20510;-70
2021/05/29 02:18:09;;;;;;;6.07;4.00;;;;;;;;;;5006977;28;20081;-70
2021/05/29 02:20:44;;;;;;;5.40;4.05;;;;;;;;;;5006968;28;20132;-70
2021/05/29 02:23:13;;;;;;;4.07;3.67;;;;;;;;;;5007010;28;20089;-70
2021/05/29 02:25:40;;;;;;;4.50;3.63;;;;;;;;;;5006574;28;20100;-70
2021/05/29 02:28:06;;;;;;;5.05;3.88;;;;;;;;;;5006896;28;20090;-70
2021/05/29 02:30:34;;;;;;;4.25;3.80;;;;;;;;;;5006773;28;20085;-70
2021/05/29 02:33:01;;;;;;;5.07;3.22;;;;;;;;;;5010484;28;20525;-70
2021/05/29 02:35:28;;;;;;;5.45;3.63;;;;;;;;;;4994029;28;20090;-70
2021/05/29 02:37:55;;;;;;;5.07;3.33;;;;;;;;;;5010435;28;20082;-70
2021/05/29 02:40:21;;;;;;;4.97;3.60;;;;;;;;;;4995403;28;20054;-71
2021/05/29 02:42:48;;;;;;;5.65;3.80;;;;;;;;;;5010390;28;20081;-70
2021/05/29 02:45:15;;;;;;;3.60;3.30;;;;;;;;;;4994099;28;20054;-70
2021/05/29 02:47:42;;;;;;;5.20;4.40;;;;;;;;;;5026725;22;20079;-68
2021/05/29 02:50:09;;;;;;;5.13;3.95;;;;;;;;;;4956504;28;20094;-67
2021/05/29 02:52:37;;;;;;;3.88;3.47;;;;;;;;;;4956542;28;20047;-68
2021/05/29 02:55:05;;;;;;;6.32;3.78;;;;;;;;;;4956846;28;20051;-67
2021/05/29 02:57:32;;;;;;;5.55;3.97;;;;;;;;;;4956043;28;20083;-68
2021/05/29 02:59:58;;;;;;;6.50;4.07;;;;;;;;;;4956382;28;20055;-68
2021/05/29 03:02:25;;;;;;;7.43;5.13;;;;;;;;;;4956595;28;20090;-67
2021/05/29 03:04:52;;;;;;;5.47;4.55;;;;;;;;;;4956292;28;20051;-68
2021/05/29 03:07:19;;;;;;;6.35;4.80;;;;;;;;;;4955882;28;20052;-68
2021/05/29 03:09:46;;;;;;;4.93;4.25;;;;;;;;;;4956373;28;20057;-69
2021/05/29 03:12:12;;;;;;;5.97;4.28;;;;;;;;;;4956197;28;20139;-68
2021/05/29 03:14:39;;;;;;;8.48;4.75;;;;;;;;;;4956118;28;20055;-68
2021/05/29 03:17:05;;;;;;;5.30;4.22;;;;;;;;;;4955616;28;20086;-68
2021/05/29 03:19:32;;;;;;;7.40;5.32;;;;;;;;;;4956098;28;20150;-68
2021/05/29 03:21:58;;;;;;;6.68;4.60;;;;;;;;;;4956167;28;20094;-67
2021/05/29 03:24:25;;;;;;;5.28;4.78;;;;;;;;;;4955988;28;20450;-67
2021/05/29 03:26:52;;;;;;;5.70;4.38;;;;;;;;;;4955785;28;20082;-68
2021/05/29 03:29:19;;;;;;;10.07;5.35;;;;;;;;;;4955905;28;20135;-68
2021/05/29 03:31:45;;;;;;;4.80;4.35;;;;;;;;;;4955881;28;20149;-67
2021/05/29 03:34:12;;;;;;;5.05;4.13;;;;;;;;;;4956318;28;20059;-67
2021/05/29 03:36:39;;;;;;;6.13;4.68;;;;;;;;;;4955419;28;20565;-68
2021/05/29 03:39:05;;;;;;;5.88;4.40;;;;;;;;;;4955777;28;20094;-68
2021/05/29 03:41:32;;;;;;;5.80;4.63;;;;;;;;;;4955672;28;20430;-68
2021/05/29 03:44:00;;;;;;;6.85;4.95;;;;;;;;;;4954654;28;20093;-68
2021/05/29 03:46:28;;;;;;;4.82;4.28;;;;;;;;;;4954097;29;20086;-68
2021/05/29 03:48:54;;;;;;;6.93;4.97;;;;;;;;;;4955746;28;20051;-67
2021/05/29 03:51:21;;;;;;;6.03;4.82;;;;;;;;;;4955676;28;20114;-68
2021/05/29 03:53:47;;;;;;;7.00;4.93;;;;;;;;;;4955319;28;20083;-68
2021/05/29 03:56:14;;;;;;;7.43;5.40;;;;;;;;;;4955118;28;20098;-68
2021/05/29 03:58:41;;;;;;;6.20;5.60;;;;;;;;;;4955221;29;20055;-68
2021/05/29 04:01:08;;;;;;;7.07;6.13;;;;;;;;;;4955396;28;20082;-67
2021/05/29 04:03:35;;;;;;;8.13;6.03;;;;;;;;;;4955358;28;20132;-68
2021/05/29 04:06:02;;;;;;;7.18;5.60;;;;;;;;;;4954975;28;20490;-67
2021/05/29 04:08:28;;;;;;;6.05;5.28;;;;;;;;;;4955112;28;20483;-68
2021/05/29 04:10:55;;;;;;;5.47;4.80;;;;;;;;;;4955131;28;20549;-68
2021/05/29 04:13:22;;;;;;;5.80;4.90;;;;;;;;;;4954894;28;20130;-67
2021/05/29 04:15:48;;;;;;;5.13;4.63;;;;;;;;;;4954818;28;20090;-68
2021/05/29 04:18:15;;;;;;;5.15;4.60;;;;;;;;;;4954799;28;20051;-68
2021/05/29 04:20:42;;;;;;;5.30;4.65;;;;;;;;;;4955061;28;20134;-67
2021/05/29 04:23:08;;;;;;;8.18;5.20;;;;;;;;;;4954915;28;20138;-67
2021/05/29 04:25:35;;;;;;;7.18;5.10;;;;;;;;;;4954627;28;20055;-67
2021/05/29 04:28:02;;;;;;;5.35;4.85;;;;;;;;;;4954859;28;20079;-68
2021/05/29 04:30:29;;;;;;;5.95;4.82;;;;;;;;;;4954901;28;20142;-68
2021/05/29 04:32:56;;;;;;;7.85;5.05;;;;;;;;;;4954790;28;20078;-68
2021/05/29 04:35:23;;;;;;;5.15;4.65;;;;;;;;;;4937576;29;20051;-69
2021/05/29 04:37:51;;;;;;;5.70;5.10;;;;;;;;;;4954881;28;20418;-69
2021/05/29 04:40:20;;;;;;;6.97;5.28;;;;;;;;;;4954589;28;20752;-67
2021/05/29 04:42:48;;;;;;;5.32;4.68;;;;;;;;;;4954747;28;20130;-69
2021/05/29 04:45:15;;;;;;;7.07;4.93;;;;;;;;;;4954583;28;20083;-68
2021/05/29 04:47:42;;;;;;;5.85;5.32;;;;;;;;;;4954155;28;20047;-67
2021/05/29 04:50:10;;;;;;;7.05;4.90;;;;;;;;;;4954801;28;20536;-68
2021/05/29 04:52:37;;;;;;;5.75;5.00;;;;;;;;;;4954481;28;20087;-68
2021/05/29 04:55:06;;;;;;;5.72;4.68;;;;;;;;;;4954255;28;20051;-67
2021/05/29 04:57:33;;;;;;;6.38;4.60;;;;;;;;;;4953963;28;20089;-68
2021/05/29 05:00:00;;;;;;;6.18;5.00;;;;;;;;;;4954626;28;20055;-68
2021/05/29 05:02:26;;;;;;;5.07;4.57;;;;;;;;;;4954326;28;20074;-68
2021/05/29 05:04:53;;;;;;;5.57;4.78;;;;;;;;;;4954250;28;20055;-67
2021/05/29 05:07:19;;;;;;;4.88;4.43;;;;;;;;;;4968755;28;20438;-68
2021/05/29 05:09:46;;;;;;;5.63;4.78;;;;;;;;;;4954261;28;20499;-68
2021/05/29 05:12:12;;;;;;;5.38;4.88;;;;;;;;;;4953956;28;20093;-68
2021/05/29 05:14:40;;;;;;;5.63;4.45;;;;;;;;;;4952817;29;20059;-67
2021/05/29 05:17:06;;;;;;;5.78;5.18;;;;;;;;;;4953517;28;20162;-69
2021/05/29 05:19:33;;;;;;;6.75;4.90;;;;;;;;;;4953921;28;20469;-68
2021/05/29 05:21:59;;;;;;;6.38;4.95;;;;;;;;;;4953949;28;20055;-67
2021/05/29 05:24:26;;;;;;;6.20;4.60;;;;;;;;;;4953927;28;20489;-68
2021/05/29 05:26:53;;;;;;;4.88;4.38;;;;;;;;;;4968445;28;20086;-69
2021/05/29 05:29:19;;;;;;;4.88;4.28;;;;;;;;;;4953972;28;20514;-67
2021/05/29 05:31:46;;;;;;;5.25;4.72;;;;;;;;;;4953913;28;20454;-67
2021/05/29 05:34:13;;;;;;;4.80;4.40;;;;;;;;;;4953795;28;20051;-68
2021/05/29 05:36:40;;;;;;;4.03;3.72;;;;;;;;;;4953445;28;20059;-68
2021/05/29 05:39:10;;;;;;;5.85;4.35;;;;;;;;;;4954054;28;20126;-67
2021/05/29 05:41:37;;;;;;;4.72;4.32;;;;;;;;;;4953774;28;20130;-69
2021/05/29 05:44:05;;;;;;;5.03;4.07;;;;;;;;;;4953787;28;20118;-68
2021/05/29 05:46:32;;;;;;;6.40;4.40;;;;;;;;;;4953319;28;20478;-68
2021/05/29 05:48:58;;;;;;;5.40;4.18;;;;;;;;;;4953824;28;20510;-68
2021/05/29 05:51:26;;;;;;;4.53;3.72;;;;;;;;;;4953628;28;20087;-68
2021/05/29 05:53:52;;;;;;;5.97;3.97;;;;;;;;;;4953693;28;20486;-67
2021/05/29 05:56:26;;;;;;;5.03;4.00;;;;;;;;;;4953140;28;20090;-69
2021/05/29 05:58:57;;;;;;;3.90;3.45;;;;;;;;;;4953645;28;20506;-68
2021/05/29 06:01:24;;;;;;;5.20;3.92;;;;;;;;;;4953707;28;20097;-67
2021/05/29 06:03:51;;;;;;;4.57;3.60;;;;;;;;;;4953713;28;20056;-68
2021/05/29 06:06:18;;;;;;;5.55;3.60;;;;;;;;;;4954439;28;20083;-68
2021/05/29 06:08:44;;;;;;;6.78;3.70;;;;;;;;;;4957423;28;20079;-68
2021/05/29 06:11:11;;;;;;;3.33;3.03;;;;;;;;;;4957404;28;20098;-68
2021/05/29 06:21:36;;;;;;;3.78;3.22;;;;;;;;;;4957277;28;20097;-67
2021/05/29 06:24:03;;;;;;;4.25;3.00;;;;;;;;;;4957130;28;20094;-68
2021/05/29 06:26:30;;;;;;;3.05;2.75;;;;;;;;;;4956698;28;20091;-68
2021/05/29 06:28:57;;;;;;;7.35;5.30;;;;;;;;;;4957037;28;20561;-68
2021/05/29 06:31:23;;;;;;;3.03;2.75;;;;;;;;;;4956884;28;20059;-68
2021/05/29 06:33:50;;;;;;;10.45;4.50;;;;;;;;;;4956955;28;20130;-69
2021/05/29 06:36:16;;;;;;;3.45;3.15;;;;;;;;;;4956649;28;20086;-68
2021/05/29 06:38:44;;;;;;;3.72;3.25;;;;;;;;;;4957050;28;20079;-68
2021/05/29 06:41:11;;;;;;;3.80;3.33;;;;;;;;;;4956848;28;20089;-67
2021/05/29 06:43:38;;;;;;;5.05;3.17;;;;;;;;;;4956780;28;20090;-68
2021/05/29 06:46:04;;;;;;;7.00;3.22;;;;;;;;;;4956623;28;20054;-69
2021/05/29 06:48:31;;;;;;;4.55;3.63;;;;;;;;;;4956588;28;20094;-67
2021/05/29 06:50:58;;;;;;;4.53;2.80;;;;;;;;;;4956695;28;20102;-67
2021/05/29 06:53:47;;;;;;;4.78;3.50;;;;;;;;;;4956601;28;20577;-68
2021/05/29 06:59:02;;;;;;;3.85;3.03;;;;;;;;;;4974688;28;20061;-68
2021/05/29 07:01:29;;;;;;;6.60;2.85;;;;;;;;;;4956392;28;20065;-68
2021/05/29 07:03:56;;;;;;;3.58;2.53;;;;;;;;;;4956598;28;20060;-68
2021/05/29 07:06:23;;;;;;;3.78;2.72;;;;;;;;;;4956018;28;20467;-68
2021/05/29 07:08:50;;;;;;;3.03;2.65;;;;;;;;;;4955068;29;20466;-68
2021/05/29 07:11:18;;;;;;;6.65;3.05;;;;;;;;;;4956115;28;20098;-69
2021/05/29 07:13:45;;;;;;;4.97;2.50;;;;;;;;;;4956232;28;20130;-68
2021/05/29 07:16:11;;;;;;;3.50;2.38;;;;;;;;;;4955851;28;20055;-69
2021/05/29 07:18:45;;;;;;;3.80;2.50;;;;;;;;;;4954594;28;20066;-68
2021/05/29 07:21:13;;;;;;;3.22;2.20;;;;;;;;;;4956052;28;20537;-68
2021/05/29 07:23:39;;;;;;;4.60;1.73;;;;;;;;;;4956015;28;20082;-69
2021/05/29 07:26:06;;;;;;;2.20;2.00;;;;;;;;;;4955883;28;20089;-68
2021/05/29 07:28:33;;;;;;;2.10;1.73;;;;;;;;;;4955991;28;20078;-68
2021/05/29 07:31:00;;;;;;;2.05;1.90;;;;;;;;;;4955932;28;20051;-68
2021/05/29 07:33:27;;;;;;;2.85;2.08;;;;;;;;;;4955655;28;20090;-69
2021/05/29 07:35:54;;;;;;;2.70;1.80;;;;;;;;;;4955545;28;20051;-69
2021/05/29 07:38:22;;;;;;;3.28;2.05;;;;;;;;;;4955639;28;20529;-69
2021/05/29 07:40:49;;;;;;;5.30;2.00;;;;;;;;;;4955720;28;20406;-68
2021/05/29 07:43:16;;;;;;;3.38;2.08;;;;;;;;;;4955734;28;20043;-69
2021/05/29 07:45:43;;;;;;;3.95;1.90;;;;;;;;;;4955460;28;20078;-68
2021/05/29 07:48:11;;;;;;;5.25;1.65;;;;;;;;;;4955505;28;20598;-69
2021/05/29 07:53:46;;;;;;;2.38;1.63;;;;;;;;;;4991743;28;20121;-69
2021/05/29 07:56:14;;;;;;;3.15;2.05;;;;;;;;;;4991676;28;20078;-68
2021/05/29 07:58:42;;;;;;;3.00;1.85;;;;;;;;;;4973989;28;20098;-68
2021/05/29 08:01:12;;;;;;;2.92;1.42;;;;;;;;;;4955429;28;20051;-68
2021/05/29 08:03:39;;;;;;;2.13;1.20;;;;;;;;;;4955223;28;20055;-68
2021/05/29 08:06:13;;;;;;;1.48;1.30;;;;;;;;;;4955112;28;20051;-69
2021/05/29 08:08:40;;;;;;;4.05;1.52;;;;;;;;;;4955079;28;20094;-69
2021/05/29 08:11:07;;;;;;;2.50;1.52;;;;;;;;;;4955197;28;20080;-69
2021/05/29 08:13:33;;;;;;;1.83;1.40;;;;;;;;;;4954985;28;20051;-69
2021/05/29 08:16:00;;;;;;;2.15;1.42;;;;;;;;;;4954963;28;20051;-69
2021/05/29 08:18:26;;;;;;;1.33;1.23;;;;;;;;;;4954886;28;20047;-69
2021/05/29 08:20:53;;;;;;;3.75;1.20;;;;;;;;;;4955129;28;20403;-69
2021/05/29 08:23:20;;;;;;;1.65;1.45;;;;;;;;;;4954837;28;20043;-70
2021/05/29 08:25:47;;;;;;;1.00;0.93;;;;;;;;;;4954783;28;20090;-69
2021/05/29 08:28:13;;;;;;;1.45;1.15;;;;;;;;;;4954826;28;20086;-69
2021/05/29 08:30:40;;;;;;;1.73;1.27;;;;;;;;;;4954444;28;20094;-69
2021/05/29 08:33:07;;;;;;;2.45;1.25;;;;;;;;;;4954731;28;20066;-69
2021/05/29 08:35:35;;;;;;;3.03;1.30;;;;;;;;;;4954381;28;20055;-69
2021/05/29 08:38:05;;;;;;;2.33;1.10;;;;;;;;;;4954629;28;20075;-69
2021/05/29 08:40:32;;;;;;;1.40;1.20;;;;;;;;;;4954630;28;20050;-68
2021/05/29 08:42:58;;;;;;;2.83;1.73;;;;;;;;;;4954665;28;20102;-68
2021/05/29 08:45:25;;;;;;;2.50;1.30;;;;;;;;;;4954362;28;20098;-69
2021/05/29 08:47:52;;;;;;;1.95;1.67;;;;;;;;;;4999452;23;20072;-74
2021/05/29 08:50:19;;;;;;;1.48;1.30;;;;;;;;;;4999879;28;20050;-72
2021/05/29 08:52:49;;;;;;;1.55;1.20;;;;;;;;;;4999454;28;20069;-72
2021/05/29 08:55:18;;;;;;;2.15;1.55;;;;;;;;;;4981327;28;20535;-70
2021/05/29 08:57:53;;;;;;;2.38;1.77;;;;;;;;;;5008803;28;20046;-72
2021/05/29 09:00:26;;;;;;;1.63;1.33;;;;;;;;;;5009972;28;20085;-68
2021/05/29 09:03:08;;;;;;;2.50;1.35;;;;;;;;;;5009871;28;20085;-69
2021/05/29 09:05:47;;;;;;;2.00;1.55;;;;;;;;;;5011281;28;20040;-67
2021/05/29 09:08:13;;;;;;;2.22;1.38;;;;;;;;;;5008754;28;20058;-69
2021/05/29 09:10:41;;;;;;;4.28;1.63;;;;;;;;;;5010396;28;20058;-71
2021/05/29 09:13:10;;;;;;;1.88;1.30;;;;;;;;;;5009894;28;20046;-70
2021/05/29 09:15:50;;;;;;;2.20;1.45;;;;;;;;;;5010353;28;20054;-69
2021/05/29 09:18:36;;;;;;;5.15;2.10;;;;;;;;;;5011717;28;20038;-69
2021/05/29 09:21:32;;;;;;;3.38;1.30;;;;;;;;;;5012415;28;20061;-69
2021/05/29 09:24:04;;;;;;;1.58;1.20;;;;;;;;;;5009499;28;20050;-69
2021/05/29 09:26:46;;;;;;;3.85;1.50;;;;;;;;;;5011374;28;20061;-71
2021/05/29 09:29:29;;;;;;;1.48;1.30;;;;;;;;;;5010722;28;20046;-72
2021/05/29 09:31:59;;;;;;;1.55;1.40;;;;;;;;;;5008915;28;20058;-71
2021/05/29 09:34:32;;;;;;;1.70;1.48;;;;;;;;;;5009782;28;20042;-71
2021/05/29 09:37:27;;;;;;;2.05;1.60;;;;;;;;;;5006562;28;20054;-70
2021/05/29 09:39:58;;;;;;;3.33;1.50;;;;;;;;;;5002472;28;20061;-72
2021/05/29 09:42:34;;;;;;;2.13;1.70;;;;;;;;;;5004611;28;20051;-71
2021/05/29 09:45:23;;;;;;;4.20;1.85;;;;;;;;;;5004490;28;20055;-71
2021/05/29 09:48:19;;;;;;;4.45;1.80;;;;;;;;;;5004649;28;20050;-69
2021/05/29 09:51:02;;;;;;;1.67;1.30;;;;;;;;;;5004094;28;20137;-71
2021/05/29 09:53:45;;;;;;;2.10;1.48;;;;;;;;;;5004943;28;20058;-71
2021/05/29 09:56:31;;;;;;;1.80;1.38;;;;;;;;;;5006428;28;20054;-69
2021/05/29 09:59:02;;;;;;;1.30;1.20;;;;;;;;;;5004086;28;20055;-71
2021/05/29 10:01:35;;;;;;;2.08;1.15;;;;;;;;;;5003938;28;20061;-71
2021/05/29 10:04:06;;;;;;;2.97;1.60;;;;;;;;;;5005296;28;20053;-71
2021/05/29 10:06:33;;;;;;;2.03;1.38;;;;;;;;;;5007077;28;20050;-69
2021/05/29 10:09:00;;;;;;;2.53;1.42;;;;;;;;;;5000759;28;20104;-71
2021/05/29 10:11:28;;;;;;;1.55;1.10;;;;;;;;;;4993575;28;20093;-70
2021/05/29 10:13:54;;;;;;;2.28;1.17;;;;;;;;;;4992315;28;20062;-69
2021/05/29 10:16:21;;;;;;;4.32;1.25;;;;;;;;;;4992628;28;20054;-69
2021/05/29 10:18:50;;;;;;;2.42;1.27;;;;;;;;;;4992727;28;20074;-71
2021/05/29 10:21:17;;;;;;;1.67;1.42;;;;;;;;;;4992677;28;20163;-69
2021/05/29 10:23:45;;;;;;;4.00;1.35;;;;;;;;;;4993239;28;20125;-71
2021/05/29 10:26:13;;;;;;;1.95;0.98;;;;;;;;;;4993665;28;20501;-70
2021/05/29 10:28:40;;;;;;;4.20;1.20;;;;;;;;;;4991520;28;20137;-71
2021/05/29 10:31:07;;;;;;;1.67;1.20;;;;;;;;;;4992331;28;20073;-68
2021/05/29 10:33:41;;;;;;;3.20;1.05;;;;;;;;;;4990633;28;20501;-71
2021/05/29 10:36:09;;;;;;;1.20;0.90;;;;;;;;;;4990965;28;20509;-70
2021/05/29 10:38:43;;;;;;;1.75;1.30;;;;;;;;;;4991899;28;20505;-70
2021/05/29 10:41:09;;;;;;;1.65;0.90;;;;;;;;;;4992284;28;20137;-70
2021/05/29 10:43:36;;;;;;;3.00;0.93;;;;;;;;;;4991013;28;20073;-70
2021/05/29 10:46:09;;;;;;;1.52;1.08;;;;;;;;;;4992104;28;20097;-69
2021/05/29 10:48:43;;;;;;;;;;;;;;;;;;4992510;28;20050;-71
2021/05/29 10:51:11;;;;;;;;;;;;;;;;;;4992720;28;20022;-70
2021/05/29 10:53:44;;;;;;;1.75;1.58;;;;;;;;;;4994803;28;19921;-70
2021/05/29 10:56:19;;;;;;;1.75;0.82;;;;;;;;;;4995793;28;20097;-71
2021/05/29 10:59:09;;;;;;;1.85;1.00;;;;;;;;;;4996296;28;20047;-71
2021/05/29 11:01:37;;;;;;;1.13;1.02;;;;;;;;;;4995783;28;20073;-72
2021/05/29 11:04:21;;;;;;;1.45;1.00;;;;;;;;;;4998376;28;20046;-72
2021/05/29 11:06:52;;;;;;;1.17;0.75;;;;;;;;;;4996521;28;20054;-71
2021/05/29 11:09:24;;;;;;;0.90;0.82;;;;;;;;;;4997624;28;20575;-70
2021/05/29 11:11:56;;;;;;;0.90;0.75;;;;;;;;;;4996138;28;20145;-70
2021/05/29 11:14:30;;;;;;;1.00;0.90;;;;;;;;;;4996237;28;20093;-70
2021/05/29 11:16:57;;;;;;;0.80;0.80;;;;;;;;;;4996958;28;20077;-70
2021/05/29 11:19:24;;;;;;;1.13;0.70;;;;;;;;;;4998016;28;20050;-69
2021/05/29 11:22:11;;;;;;;2.25;1.02;;;;;;;;;;4997036;28;20054;-71
2021/05/29 11:24:52;;;;;;;2.88;1.02;;;;;;;;;;4995034;28;20054;-70
2021/05/29 11:27:27;;;;;;;1.05;0.80;;;;;;;;;;4995156;28;20054;-70
2021/05/29 11:29:54;;;;;;;0.88;0.70;;;;;;;;;;4995229;28;20054;-70
2021/05/29 11:32:45;;;;;;;1.05;0.95;;;;;;;;;;4995240;28;20564;-68
2021/05/29 11:35:42;;;;;;;2.33;1.20;;;;;;;;;;4994899;28;20050;-70
2021/05/29 11:38:23;;;;;;;2.53;1.38;;;;;;;;;;4994659;28;20524;-70
2021/05/29 11:40:51;;;;;;;1.27;0.60;;;;;;;;;;4993777;28;20461;-70
2021/05/29 11:43:22;;;;;;;0.70;0.70;;;;;;;;;;4994713;28;20112;-69
2021/05/29 11:45:58;;;;;;;1.27;1.17;;;;;;;;;;4995340;28;20214;-69
2021/05/29 11:48:28;;;;;;;3.38;2.58;;;;;;;;;;4994558;28;20065;-71
2021/05/29 11:51:11;;;;;;;0.52;0.52;;;;;;;;;;4993437;28;20086;-70
2021/05/29 11:54:07;;;;;;;1.20;0.70;;;;;;;;;;4994296;28;20054;-70
2021/05/29 11:56:45;;;;;;;0.75;0.60;;;;;;;;;;4989629;28;20074;-70
2021/05/29 11:59:15;;;;;;;0.75;0.75;;;;;;;;;;4994327;28;20086;-70
2021/05/29 12:01:44;;;;;;;3.05;0.80;;;;;;;;;;4994247;28;20153;-68
2021/05/29 12:04:12;;;;;;;1.77;0.63;;;;;;;;;;4993539;28;20053;-70
2021/05/29 12:06:50;;;;;;;2.00;0.70;;;;;;;;;;4994332;28;20057;-69
2021/05/29 12:09:21;;;;;;;1.92;0.70;;;;;;;;;;4994575;28;20078;-69
2021/05/29 12:11:52;;;;;;;0.52;0.50;;;;;;;;;;4994723;28;20057;-69
2021/05/29 12:14:38;;;;;;;0.40;0.40;;;;;;;;;;4994587;28;20088;-68
2021/05/29 12:17:04;;;;;;;2.55;0.80;;;;;;;;;;4993785;28;20141;-70
2021/05/29 12:19:39;;;;;;;1.10;0.50;;;;;;;;;;4994098;28;20058;-69
2021/05/29 12:22:35;;;;;;;0.68;0.40;;;;;;;;;;4994221;28;20077;-70
2021/05/29 12:25:07;;;;;;;2.00;0.57;;;;;;;;;;4991878;28;20413;-70
2021/05/29 12:27:41;;;;;;;0.75;0.50;;;;;;;;;;4993413;28;20108;-70
2021/05/29 12:30:15;;;;;;;0.82;0.70;;;;;;;;;;4993762;28;20051;-71
2021/05/29 12:32:43;;;;;;;0.55;0.55;;;;;;;;;;4992687;28;20054;-70
2021/05/29 12:35:31;;;;;;;0.95;0.70;;;;;;;;;;4994378;28;20055;-69
2021/05/29 12:38:14;;;;;;;2.25;0.93;;;;;;;;;;4994794;28;20082;-69
2021/05/29 12:40:58;;;;;;;0.57;0.50;;;;;;;;;;4997784;28;20524;-71
2021/05/29 12:43:25;;;;;;;2.28;0.60;;;;;;;;;;4997248;28;20440;-71
2021/05/29 12:45:52;;;;;;;0.45;0.40;;;;;;;;;;4998834;28;20050;-70
2021/05/29 12:48:19;;;;;;;1.25;0.50;;;;;;;;;;4996940;28;20061;-70
2021/05/29 12:51:08;;;;;;;0.40;0.20;;;;;;;;;;4999253;28;20101;-68
2021/05/29 12:53:37;;;;;;;0.30;0.30;;;;;;;;;;4998751;28;20464;-70
2021/05/29 12:56:09;;;;;;;0.22;0.22;;;;;;;;;;4999462;28;20046;-70
2021/05/29 12:58:36;;;;;;;1.50;0.43;;;;;;;;;;4997893;28;20505;-69
2021/05/29 13:09:09;;;;;;;0.43;0.43;;;;;;;;;;4998923;28;20054;-70
2021/05/29 13:11:37;;;;;;;0.47;0.40;;;;;;;;;;4998556;28;20055;-70
2021/05/29 13:14:12;;;;;;;1.33;0.40;;;;;;;;;;5001880;28;20053;-71
2021/05/29 13:16:47;;;;;;;1.02;0.50;;;;;;;;;;4997414;28;20077;-70
2021/05/29 13:19:13;;;;;;;0.52;0.40;;;;;;;;;;4998734;28;20081;-70
2021/05/29 13:22:00;;;;;;;0.60;0.50;;;;;;;;;;4996956;28;20061;-70
2021/05/29 13:24:40;;;;;;;0.40;0.40;;;;;;;;;;4996657;28;20050;-70
2021/05/29 13:27:08;;;;;;;0.43;0.43;;;;;;;;;;4997920;28;20089;-71
2021/05/29 13:29:35;;;;;;;0.85;0.40;;;;;;;;;;4992908;28;20058;-70
2021/05/29 13:32:03;;;;;;;0.65;0.35;;;;;;;;;;4994254;28;20054;-71
2021/05/29 13:34:29;;;;;;;0.90;0.80;;;;;;;;;;4993923;28;20051;-70
2021/05/29 13:36:56;;;;;;;0.77;0.40;;;;;;;;;;4992555;28;20548;-71
2021/05/29 13:39:23;;;;;;;0.73;0.47;;;;;;;;;;4994150;28;20090;-70
2021/05/29 13:41:49;;;;;;;0.43;0.43;;;;;;;;;;4993308;28;20077;-71
2021/05/29 13:44:16;;;;;;;0.43;0.40;;;;;;;;;;4994533;28;20090;-70
2021/05/29 13:46:42;;;;;;;0.82;0.45;;;;;;;;;;4995050;28;20078;-69
2021/05/29 13:49:09;;;;;;;0.70;0.50;;;;;;;;;;4993602;28;20452;-71
2021/05/29 13:51:36;;;;;;;1.52;0.55;;;;;;;;;;4993504;28;20425;-71
2021/05/29 13:54:04;;;;;;;0.60;0.57;;;;;;;;;;4993468;28;20093;-70
2021/05/29 13:56:34;;;;;;;0.95;0.40;;;;;;;;;;4993035;28;20116;-70
2021/05/29 13:59:04;;;;;;;0.20;0.20;;;;;;;;;;4993420;28;20560;-69
2021/05/29 14:01:32;;;;;;;2.05;0.50;;;;;;;;;;4994159;28;20051;-68
2021/05/29 14:03:59;;;;;;;0.68;0.30;;;;;;;;;;4994122;28;20058;-71
2021/05/29 14:06:25;;;;;;;1.10;0.80;;;;;;;;;;4993119;28;20046;-70
2021/05/29 14:08:52;;;;;;;0.45;0.30;;;;;;;;;;4993400;28;20089;-71
2021/05/29 14:11:25;;;;;;;1.55;0.40;;;;;;;;;;4992743;28;20478;-71
2021/05/29 14:13:52;;;;;;;0.95;0.40;;;;;;;;;;4991833;28;20104;-70
2021/05/29 14:16:35;;;;;;;0.47;0.30;;;;;;;;;;4991606;28;20093;-71
2021/05/29 14:19:03;;;;;;;2.15;0.85;;;;;;;;;;4992869;28;20494;-71
2021/05/29 14:21:30;;;;;;;0.40;0.30;;;;;;;;;;4992540;28;20057;-70
2021/05/29 14:23:57;;;;;;;0.47;0.30;;;;;;;;;;4993662;28;20100;-69
2021/05/29 14:26:30;;;;;;;0.45;0.35;;;;;;;;;;4994721;28;20082;-71
2021/05/29 14:29:01;;;;;;;0.47;0.45;;;;;;;;;;4998214;28;20050;-69
2021/05/29 14:31:28;;;;;;;0.30;0.30;;;;;;;;;;5000220;28;20058;-70
2021/05/29 14:33:55;;;;;;;1.15;0.60;;;;;;;;;;4999001;28;20560;-71
2021/05/29 14:36:23;;;;;;;0.50;0.50;;;;;;;;;;5000034;28;20490;-70
2021/05/29 14:38:50;;;;;;;1.50;0.70;;;;;;;;;;4996924;28;20050;-70
2021/05/29 14:41:17;;;;;;;0.70;0.70;;;;;;;;;;4998836;28;20078;-71
2021/05/29 14:43:43;;;;;;;1.60;0.77;;;;;;;;;;5002854;28;20104;-71
2021/05/29 14:46:15;;;;;;;2.35;0.50;;;;;;;;;;5002249;28;20046;-69
2021/05/29 14:48:45;;;;;;;1.05;0.50;;;;;;;;;;5020333;23;20408;-73
2021/05/29 14:51:16;;;;;;;0.38;0.38;;;;;;;;;;4978515;28;20050;-73
2021/05/29 14:53:53;;;;;;;0.47;0.47;;;;;;;;;;4963001;28;20108;-73
2021/05/29 14:56:22;;;;;;;1.60;0.68;;;;;;;;;;4977821;28;20054;-72
2021/05/29 14:58:48;;;;;;;0.60;0.52;;;;;;;;;;4980230;28;20182;-72
2021/05/29 15:01:15;;;;;;;1.35;0.70;;;;;;;;;;4975838;28;20100;-73
2021/05/29 15:03:47;;;;;;;0.63;0.60;;;;;;;;;;4990549;28;20109;-71
2021/05/29 15:06:14;;;;;;;2.53;0.75;;;;;;;;;;4989993;28;20100;-72
2021/05/29 15:08:40;;;;;;;0.70;0.70;;;;;;;;;;4990405;28;20054;-72
2021/05/29 15:11:07;;;;;;;2.65;0.90;;;;;;;;;;4990593;28;20553;-72
2021/05/29 15:13:34;;;;;;;0.82;0.52;;;;;;;;;;4990415;28;20082;-73
2021/05/29 15:16:01;;;;;;;0.80;0.70;;;;;;;;;;4975191;28;20133;-72
2021/05/29 15:18:28;;;;;;;0.50;0.50;;;;;;;;;;4990023;28;20086;-73
2021/05/29 15:23:29;;;;;;;1.00;0.80;;;;;;;;;;4975296;28;20047;-73